createdAt,value
2017-11-11T00:00:21.499Z,8.06
2017-11-11T00:00:47.669Z,8
2017-11-11T00:01:13.959Z,8.12
2017-11-11T00:01:40.111Z,8.05
2017-11-11T00:02:06.238Z,8.13
2017-11-11T00:02:32.380Z,8.1
2017-11-11T00:02:58.530Z,8.16
2017-11-11T00:03:24.693Z,8.15
2017-11-11T00:03:50.798Z,8.06
2017-11-11T00:04:16.947Z,8.06
2017-11-11T00:04:43.072Z,8.1
2017-11-11T00:05:09.216Z,7.98
2017-11-11T00:05:35.364Z,8.05
2017-11-11T00:06:01.498Z,7.97
2017-11-11T00:06:27.631Z,8.01
2017-11-11T00:06:53.762Z,8.05
2017-11-11T00:07:19.947Z,7.98
2017-11-11T00:07:46.098Z,8.08
2017-11-11T00:08:12.257Z,8.08
2017-11-11T00:08:38.361Z,8.16
2017-11-11T00:09:04.510Z,8.15
2017-11-11T00:09:30.625Z,8.15
2017-11-11T00:09:56.762Z,8.06
2017-11-11T00:10:22.887Z,8.06
2017-11-11T00:10:49.038Z,7.98
2017-11-11T00:11:15.167Z,8.06
2017-11-11T00:11:41.371Z,8.03
2017-11-11T00:12:07.482Z,8.12
2017-11-11T00:12:33.759Z,8.1
2017-11-11T00:13:00.266Z,8.08
2017-11-11T00:13:26.448Z,8.12
2017-11-11T00:13:52.613Z,8.05
2017-11-11T00:14:18.740Z,8.01
2017-11-11T00:14:44.909Z,7.91
2017-11-11T00:15:11.058Z,7.93
2017-11-11T00:15:37.197Z,8
2017-11-11T00:16:03.332Z,7.94
2017-11-11T00:16:30.143Z,8
2017-11-11T00:16:56.275Z,7.94
2017-11-11T00:17:22.386Z,7.98
2017-11-11T00:17:48.508Z,7.98
2017-11-11T00:18:14.624Z,7.95
2017-11-11T00:18:40.768Z,7.98
2017-11-11T00:19:06.881Z,7.98
2017-11-11T00:19:33.002Z,7.98
2017-11-11T00:19:59.170Z,7.95
2017-11-11T00:20:25.517Z,7.98
2017-11-11T00:20:51.798Z,8.06
2017-11-11T00:21:17.947Z,7.93
2017-11-11T00:21:44.070Z,7.95
2017-11-11T00:22:10.181Z,8
2017-11-11T00:22:36.312Z,8
2017-11-11T00:23:02.426Z,7.98
2017-11-11T00:23:28.549Z,7.98
2017-11-11T00:23:54.682Z,7.93
2017-11-11T00:24:21.057Z,7.95
2017-11-11T00:24:47.347Z,8.03
2017-11-11T00:25:13.444Z,8.05
2017-11-11T00:25:39.555Z,7.98
2017-11-11T00:26:05.709Z,8.05
2017-11-11T00:26:31.827Z,8.01
2017-11-11T00:26:57.956Z,7.97
2017-11-11T00:27:24.073Z,8.05
2017-11-11T00:27:50.194Z,7.98
2017-11-11T00:28:16.318Z,7.98
2017-11-11T00:28:42.471Z,7.97
2017-11-11T00:29:08.559Z,8
2017-11-11T00:29:34.676Z,8.01
2017-11-11T00:30:00.797Z,8.01
2017-11-11T00:30:26.925Z,8.06
2017-11-11T00:30:53.045Z,8.08
2017-11-11T00:31:19.166Z,8.09
2017-11-11T00:31:45.281Z,8.1
2017-11-11T00:32:11.408Z,8.09
2017-11-11T00:32:37.551Z,7.98
2017-11-11T00:33:03.669Z,8.03
2017-11-11T00:33:29.791Z,7.98
2017-11-11T00:33:55.910Z,8
2017-11-11T00:34:22.036Z,8.05
2017-11-11T00:34:48.150Z,8.03
2017-11-11T00:35:14.270Z,7.97
2017-11-11T00:35:40.401Z,8
2017-11-11T00:36:06.511Z,7.95
2017-11-11T00:36:32.638Z,7.98
2017-11-11T00:36:58.755Z,7.98
2017-11-11T00:37:24.879Z,8
2017-11-11T00:37:51.012Z,7.93
2017-11-11T00:38:17.144Z,7.98
2017-11-11T00:38:43.265Z,8
2017-11-11T00:39:09.381Z,7.98
2017-11-11T00:39:35.503Z,7.98
2017-11-11T00:40:01.630Z,7.94
2017-11-11T00:40:27.746Z,7.94
2017-11-11T00:40:53.876Z,7.97
2017-11-11T00:41:19.994Z,7.93
2017-11-11T00:41:46.112Z,7.94
2017-11-11T00:42:12.238Z,7.94
2017-11-11T00:42:38.359Z,7.97
2017-11-11T00:43:04.478Z,7.95
2017-11-11T00:43:30.595Z,7.94
2017-11-11T00:43:56.719Z,7.97
2017-11-11T00:44:22.829Z,7.91
2017-11-11T00:44:48.979Z,7.95
2017-11-11T00:45:15.122Z,7.94
2017-11-11T00:45:41.241Z,7.98
2017-11-11T00:46:07.366Z,7.93
2017-11-11T00:46:33.492Z,7.9
2017-11-11T00:46:59.605Z,7.94
2017-11-11T00:47:25.730Z,8
2017-11-11T00:47:51.843Z,7.98
2017-11-11T00:48:17.963Z,7.91
2017-11-11T00:48:44.107Z,7.95
2017-11-11T00:49:10.226Z,7.95
2017-11-11T00:49:36.347Z,7.98
2017-11-11T00:50:02.463Z,8
2017-11-11T00:50:28.586Z,8.01
2017-11-11T00:50:54.710Z,7.97
2017-11-11T00:51:20.828Z,8.01
2017-11-11T00:51:46.949Z,7.95
2017-11-11T00:52:13.083Z,7.95
2017-11-11T00:52:39.202Z,7.95
2017-11-11T00:53:05.327Z,7.95
2017-11-11T00:53:31.452Z,7.95
2017-11-11T00:53:57.570Z,8
2017-11-11T00:54:23.694Z,7.98
2017-11-11T00:54:49.812Z,7.97
2017-11-11T00:55:15.932Z,7.79
2017-11-11T00:55:42.054Z,7.83
2017-11-11T00:56:08.175Z,7.94
2017-11-11T00:56:34.302Z,7.83
2017-11-11T00:57:00.422Z,7.75
2017-11-11T00:57:26.537Z,7.85
2017-11-11T00:57:52.655Z,7.83
2017-11-11T00:58:18.779Z,7.73
2017-11-11T00:58:44.934Z,7.88
2017-11-11T00:59:11.058Z,7.7
2017-11-11T00:59:37.180Z,7.8
2017-11-11T01:00:03.325Z,7.7
2017-11-11T01:00:29.433Z,7.7
2017-11-11T01:00:55.578Z,7.7
2017-11-11T01:01:21.698Z,7.69
2017-11-11T01:01:47.818Z,7.67
2017-11-11T01:02:13.943Z,7.7
2017-11-11T01:02:40.060Z,7.75
2017-11-11T01:03:06.179Z,7.7
2017-11-11T01:03:32.305Z,7.7
2017-11-11T01:03:58.417Z,7.66
2017-11-11T01:04:24.542Z,7.66
2017-11-11T01:04:50.655Z,7.72
2017-11-11T01:05:16.778Z,7.7
2017-11-11T01:05:42.911Z,7.75
2017-11-11T01:06:09.030Z,7.75
2017-11-11T01:06:35.176Z,7.69
2017-11-11T01:07:01.296Z,7.67
2017-11-11T01:07:27.418Z,7.69
2017-11-11T01:07:53.557Z,7.67
2017-11-11T01:08:19.677Z,7.7
2017-11-11T01:08:45.800Z,7.69
2017-11-11T01:09:11.927Z,7.67
2017-11-11T01:09:38.040Z,7.66
2017-11-11T01:10:04.156Z,7.67
2017-11-11T01:10:30.282Z,7.7
2017-11-11T01:10:56.403Z,7.67
2017-11-11T01:11:22.526Z,7.66
2017-11-11T01:11:48.647Z,7.67
2017-11-11T01:12:14.769Z,7.66
2017-11-11T01:12:40.887Z,7.54
2017-11-11T01:13:07.013Z,7.54
2017-11-11T01:13:33.134Z,7.6
2017-11-11T01:13:59.249Z,7.61
2017-11-11T01:14:25.393Z,7.54
2017-11-11T01:14:51.536Z,7.61
2017-11-11T01:15:17.650Z,7.66
2017-11-11T01:15:43.775Z,7.61
2017-11-11T01:16:09.897Z,7.57
2017-11-11T01:16:36.029Z,7.5
2017-11-11T01:17:02.150Z,7.63
2017-11-11T01:17:28.294Z,7.58
2017-11-11T01:17:54.409Z,7.5
2017-11-11T01:18:20.533Z,7.58
2017-11-11T01:18:46.651Z,7.61
2017-11-11T01:19:12.777Z,7.69
2017-11-11T01:19:38.896Z,7.6
2017-11-11T01:20:05.014Z,7.56
2017-11-11T01:20:31.129Z,7.57
2017-11-11T01:20:57.276Z,7.54
2017-11-11T01:21:23.403Z,7.54
2017-11-11T01:21:49.518Z,7.56
2017-11-11T01:22:15.635Z,7.63
2017-11-11T01:22:41.758Z,7.67
2017-11-11T01:23:07.885Z,7.6
2017-11-11T01:23:34.003Z,7.6
2017-11-11T01:24:00.118Z,7.56
2017-11-11T01:24:26.243Z,7.56
2017-11-11T01:24:52.368Z,7.57
2017-11-11T01:25:18.490Z,7.53
2017-11-11T01:25:44.617Z,7.6
2017-11-11T01:26:10.738Z,7.5
2017-11-11T01:26:36.853Z,7.51
2017-11-11T01:27:02.970Z,7.51
2017-11-11T01:27:29.095Z,7.42
2017-11-11T01:27:55.215Z,7.45
2017-11-11T01:28:21.361Z,7.5
2017-11-11T01:28:47.476Z,7.42
2017-11-11T01:29:13.593Z,7.51
2017-11-11T01:29:39.715Z,7.5
2017-11-11T01:30:05.839Z,7.51
2017-11-11T01:30:31.960Z,7.53
2017-11-11T01:30:58.085Z,7.48
2017-11-11T01:31:24.201Z,7.38
2017-11-11T01:31:50.322Z,7.4
2017-11-11T01:32:16.444Z,7.43
2017-11-11T01:32:42.567Z,7.45
2017-11-11T01:33:08.681Z,7.51
2017-11-11T01:33:34.804Z,7.43
2017-11-11T01:34:00.923Z,7.51
2017-11-11T01:34:27.048Z,7.5
2017-11-11T01:34:53.157Z,7.47
2017-11-11T01:35:19.275Z,7.42
2017-11-11T01:35:45.403Z,7.47
2017-11-11T01:36:11.524Z,7.5
2017-11-11T01:36:37.669Z,7.43
2017-11-11T01:37:03.789Z,7.43
2017-11-11T01:37:29.926Z,7.47
2017-11-11T01:37:56.048Z,7.42
2017-11-11T01:38:22.171Z,7.51
2017-11-11T01:38:48.287Z,7.43
2017-11-11T01:39:14.448Z,7.4
2017-11-11T01:39:40.583Z,7.42
2017-11-11T01:40:06.711Z,7.36
2017-11-11T01:40:32.821Z,7.45
2017-11-11T01:40:58.937Z,7.38
2017-11-11T01:41:25.065Z,7.39
2017-11-11T01:41:51.180Z,7.45
2017-11-11T01:42:17.303Z,7.38
2017-11-11T01:42:43.420Z,7.43
2017-11-11T01:43:09.547Z,7.48
2017-11-11T01:43:35.681Z,7.42
2017-11-11T01:44:01.811Z,7.36
2017-11-11T01:44:27.933Z,7.43
2017-11-11T01:44:54.045Z,7.28
2017-11-11T01:45:20.163Z,7.38
2017-11-11T01:45:46.284Z,7.48
2017-11-11T01:46:12.402Z,7.43
2017-11-11T01:46:38.522Z,7.47
2017-11-11T01:47:04.643Z,7.48
2017-11-11T01:47:30.765Z,7.45
2017-11-11T01:47:56.885Z,7.4
2017-11-11T01:48:23.002Z,7.43
2017-11-11T01:48:49.128Z,7.4
2017-11-11T01:49:15.242Z,7.31
2017-11-11T01:49:41.368Z,7.28
2017-11-11T01:50:07.483Z,7.35
2017-11-11T01:50:33.629Z,7.29
2017-11-11T01:50:59.752Z,7.36
2017-11-11T01:51:25.890Z,7.39
2017-11-11T01:51:52.004Z,7.29
2017-11-11T01:52:18.128Z,7.28
2017-11-11T01:52:44.252Z,7.23
2017-11-11T01:53:10.368Z,7.4
2017-11-11T01:53:36.513Z,7.39
2017-11-11T01:54:05.671Z,7.31
2017-11-11T01:54:31.802Z,7.45
2017-11-11T01:54:57.926Z,7.42
2017-11-11T01:55:24.051Z,7.4
2017-11-11T01:55:50.165Z,7.33
2017-11-11T01:56:16.282Z,7.39
2017-11-11T01:56:42.401Z,7.32
2017-11-11T01:57:08.525Z,7.4
2017-11-11T01:57:34.642Z,7.45
2017-11-11T01:58:00.768Z,7.24
2017-11-11T01:58:26.879Z,7.25
2017-11-11T01:58:53.006Z,7.28
2017-11-11T01:59:19.118Z,7.29
2017-11-11T01:59:45.244Z,7.32
2017-11-11T02:00:11.366Z,7.31
2017-11-11T02:00:37.483Z,7.29
2017-11-11T02:01:03.606Z,7.28
2017-11-11T02:01:29.718Z,7.28
2017-11-11T02:01:55.849Z,7.29
2017-11-11T02:02:21.959Z,7.25
2017-11-11T02:02:48.086Z,7.28
2017-11-11T02:03:14.208Z,7.31
2017-11-11T02:03:40.329Z,7.29
2017-11-11T02:04:06.444Z,7.32
2017-11-11T02:04:32.566Z,7.25
2017-11-11T02:04:58.690Z,7.25
2017-11-11T02:05:24.806Z,7.39
2017-11-11T02:05:50.955Z,7.28
2017-11-11T02:06:17.077Z,7.43
2017-11-11T02:06:43.190Z,7.29
2017-11-11T02:07:09.316Z,7.28
2017-11-11T02:07:35.440Z,7.31
2017-11-11T02:08:01.560Z,7.32
2017-11-11T02:08:27.679Z,7.43
2017-11-11T02:08:53.846Z,7.47
2017-11-11T02:09:19.965Z,7.4
2017-11-11T02:09:46.079Z,7.39
2017-11-11T02:10:12.202Z,7.39
2017-11-11T02:10:38.320Z,7.31
2017-11-11T02:11:04.444Z,7.5
2017-11-11T02:11:30.586Z,7.39
2017-11-11T02:11:56.706Z,7.36
2017-11-11T02:12:22.828Z,7.36
2017-11-11T02:12:48.942Z,7.4
2017-11-11T02:13:15.066Z,7.31
2017-11-11T02:13:41.185Z,7.45
2017-11-11T02:14:07.331Z,7.43
2017-11-11T02:14:33.444Z,7.28
2017-11-11T02:14:59.563Z,7.31
2017-11-11T02:15:25.683Z,7.35
2017-11-11T02:15:51.808Z,7.29
2017-11-11T02:16:17.935Z,7.24
2017-11-11T02:16:44.050Z,7.43
2017-11-11T02:17:10.184Z,7.28
2017-11-11T02:17:36.318Z,7.36
2017-11-11T02:18:02.433Z,7.35
2017-11-11T02:18:28.563Z,7.21
2017-11-11T02:18:54.682Z,7.33
2017-11-11T02:19:20.801Z,7.35
2017-11-11T02:19:46.923Z,7.35
2017-11-11T02:20:13.066Z,7.29
2017-11-11T02:20:39.189Z,7.25
2017-11-11T02:21:05.305Z,7.39
2017-11-11T02:21:31.424Z,7.23
2017-11-11T02:21:57.547Z,7.31
2017-11-11T02:22:23.665Z,7.38
2017-11-11T02:22:49.811Z,7.29
2017-11-11T02:23:15.937Z,7.24
2017-11-11T02:23:42.082Z,7.29
2017-11-11T02:24:08.199Z,7.32
2017-11-11T02:24:34.318Z,7.39
2017-11-11T02:25:00.432Z,7.33
2017-11-11T02:25:26.560Z,7.43
2017-11-11T02:25:52.674Z,7.4
2017-11-11T02:26:18.800Z,7.45
2017-11-11T02:26:44.916Z,7.33
2017-11-11T02:27:11.041Z,7.39
2017-11-11T02:27:37.165Z,7.47
2017-11-11T02:28:03.281Z,7.45
2017-11-11T02:28:29.399Z,7.45
2017-11-11T02:28:55.529Z,7.36
2017-11-11T02:29:21.655Z,7.43
2017-11-11T02:29:47.770Z,7.4
2017-11-11T02:30:13.894Z,7.29
2017-11-11T02:30:40.010Z,7.24
2017-11-11T02:31:06.130Z,7.32
2017-11-11T02:31:32.252Z,7.32
2017-11-11T02:31:58.375Z,7.29
2017-11-11T02:32:24.494Z,7.23
2017-11-11T02:32:50.618Z,7.24
2017-11-11T02:33:16.735Z,7.33
2017-11-11T02:33:42.850Z,7.35
2017-11-11T02:34:08.974Z,7.31
2017-11-11T02:34:35.097Z,7.25
2017-11-11T02:35:01.209Z,7.29
2017-11-11T02:35:27.333Z,7.23
2017-11-11T02:35:53.456Z,7.28
2017-11-11T02:36:19.584Z,7.28
2017-11-11T02:36:45.724Z,7.29
2017-11-11T02:37:11.855Z,7.35
2017-11-11T02:37:37.976Z,7.32
2017-11-11T02:38:04.092Z,7.28
2017-11-11T02:38:30.217Z,7.31
2017-11-11T02:38:56.339Z,7.29
2017-11-11T02:39:22.458Z,7.32
2017-11-11T02:39:48.573Z,7.28
2017-11-11T02:40:14.701Z,7.39
2017-11-11T02:40:40.822Z,7.4
2017-11-11T02:41:06.939Z,7.39
2017-11-11T02:41:33.060Z,7.43
2017-11-11T02:41:59.192Z,7.42
2017-11-11T02:42:25.311Z,7.42
2017-11-11T02:42:51.443Z,7.42
2017-11-11T02:43:17.563Z,7.42
2017-11-11T02:43:43.676Z,7.4
2017-11-11T02:44:09.804Z,7.47
2017-11-11T02:44:35.917Z,7.5
2017-11-11T02:45:02.040Z,7.5
2017-11-11T02:45:28.181Z,7.6
2017-11-11T02:45:54.297Z,7.63
2017-11-11T02:46:20.425Z,7.56
2017-11-11T02:46:46.549Z,7.63
2017-11-11T02:47:12.684Z,7.6
2017-11-11T02:47:38.812Z,7.66
2017-11-11T02:48:04.940Z,7.58
2017-11-11T02:48:31.056Z,7.61
2017-11-11T02:48:57.169Z,7.61
2017-11-11T02:49:23.293Z,7.69
2017-11-11T02:49:49.434Z,7.54
2017-11-11T02:50:15.563Z,7.51
2017-11-11T02:50:41.698Z,7.51
2017-11-11T02:51:07.810Z,7.43
2017-11-11T02:51:33.937Z,7.42
2017-11-11T02:52:00.058Z,7.47
2017-11-11T02:52:26.177Z,7.43
2017-11-11T02:52:52.301Z,7.42
2017-11-11T02:53:18.419Z,7.45
2017-11-11T02:53:44.553Z,7.48
2017-11-11T02:54:10.682Z,7.48
2017-11-11T02:54:36.807Z,7.42
2017-11-11T02:55:02.918Z,7.48
2017-11-11T02:55:29.044Z,7.43
2017-11-11T02:55:55.155Z,7.45
2017-11-11T02:56:21.273Z,7.4
2017-11-11T02:56:47.402Z,7.43
2017-11-11T02:57:13.548Z,7.38
2017-11-11T02:57:39.670Z,7.25
2017-11-11T02:58:05.786Z,7.31
2017-11-11T02:58:31.906Z,7.32
2017-11-11T02:58:58.025Z,7.43
2017-11-11T02:59:24.151Z,7.4
2017-11-11T02:59:50.265Z,7.28
2017-11-11T03:00:16.386Z,7.31
2017-11-11T03:00:42.501Z,7.4
2017-11-11T03:01:08.635Z,7.4
2017-11-11T03:01:34.790Z,7.43
2017-11-11T03:02:00.916Z,7.42
2017-11-11T03:02:27.028Z,7.47
2017-11-11T03:02:53.158Z,7.38
2017-11-11T03:03:19.280Z,7.4
2017-11-11T03:03:45.402Z,7.24
2017-11-11T03:04:11.517Z,7.35
2017-11-11T03:04:37.638Z,7.38
2017-11-11T03:05:03.757Z,7.21
2017-11-11T03:05:29.881Z,7.29
2017-11-11T03:05:56.007Z,7.33
2017-11-11T03:06:22.125Z,7.25
2017-11-11T03:06:48.263Z,7.48
2017-11-11T03:07:14.391Z,7.4
2017-11-11T03:07:40.513Z,7.36
2017-11-11T03:08:06.627Z,7.42
2017-11-11T03:08:32.753Z,7.43
2017-11-11T03:08:58.868Z,7.45
2017-11-11T03:09:24.994Z,7.43
2017-11-11T03:09:51.111Z,7.5
2017-11-11T03:10:17.231Z,7.48
2017-11-11T03:10:43.354Z,7.43
2017-11-11T03:11:09.499Z,7.38
2017-11-11T03:11:35.618Z,7.47
2017-11-11T03:12:01.735Z,7.24
2017-11-11T03:12:27.880Z,7.25
2017-11-11T03:12:54.008Z,7.39
2017-11-11T03:13:20.119Z,7.28
2017-11-11T03:13:46.244Z,7.35
2017-11-11T03:14:12.363Z,7.43
2017-11-11T03:14:38.487Z,7.47
2017-11-11T03:15:04.611Z,7.29
2017-11-11T03:15:30.737Z,7.38
2017-11-11T03:15:56.854Z,7.28
2017-11-11T03:16:22.972Z,7.43
2017-11-11T03:16:49.090Z,7.4
2017-11-11T03:17:15.208Z,7.43
2017-11-11T03:17:41.331Z,7.25
2017-11-11T03:18:07.463Z,7.35
2017-11-11T03:18:33.580Z,7.24
2017-11-11T03:18:59.697Z,7.28
2017-11-11T03:19:25.814Z,7.29
2017-11-11T03:19:51.928Z,7.39
2017-11-11T03:20:18.055Z,7.24
2017-11-11T03:20:44.174Z,7.29
2017-11-11T03:21:10.317Z,7.24
2017-11-11T03:21:36.445Z,7.25
2017-11-11T03:22:02.556Z,7.45
2017-11-11T03:22:28.684Z,7.4
2017-11-11T03:22:54.796Z,7.31
2017-11-11T03:23:20.964Z,7.4
2017-11-11T03:23:47.097Z,7.47
2017-11-11T03:24:13.234Z,7.4
2017-11-11T03:24:39.353Z,7.31
2017-11-11T03:25:05.473Z,7.29
2017-11-11T03:25:31.591Z,7.39
2017-11-11T03:25:57.711Z,7.42
2017-11-11T03:26:23.830Z,7.33
2017-11-11T03:26:49.960Z,7.25
2017-11-11T03:27:16.073Z,7.32
2017-11-11T03:27:42.239Z,7.33
2017-11-11T03:28:08.392Z,7.28
2017-11-11T03:28:34.506Z,7.31
2017-11-11T03:29:00.621Z,7.31
2017-11-11T03:29:26.767Z,7.24
2017-11-11T03:29:52.884Z,7.33
2017-11-11T03:30:19.009Z,7.24
2017-11-11T03:30:45.124Z,7.31
2017-11-11T03:31:11.266Z,7.32
2017-11-11T03:31:37.406Z,7.33
2017-11-11T03:32:03.521Z,7.35
2017-11-11T03:32:29.646Z,7.43
2017-11-11T03:32:55.770Z,7.36
2017-11-11T03:33:21.903Z,7.5
2017-11-11T03:33:48.028Z,7.45
2017-11-11T03:34:14.151Z,7.38
2017-11-11T03:34:40.264Z,7.47
2017-11-11T03:35:06.385Z,7.29
2017-11-11T03:35:32.512Z,7.32
2017-11-11T03:35:58.626Z,7.32
2017-11-11T03:36:24.744Z,7.33
2017-11-11T03:36:50.876Z,7.31
2017-11-11T03:37:16.986Z,7.31
2017-11-11T03:37:43.132Z,7.31
2017-11-11T03:38:09.247Z,7.25
2017-11-11T03:38:35.374Z,7.28
2017-11-11T03:39:01.487Z,7.21
2017-11-11T03:39:27.624Z,7.25
2017-11-11T03:39:53.744Z,7.31
2017-11-11T03:40:19.863Z,7.33
2017-11-11T03:40:45.993Z,7.24
2017-11-11T03:41:12.109Z,7.32
2017-11-11T03:41:38.231Z,7.33
2017-11-11T03:42:04.352Z,7.31
2017-11-11T03:42:30.478Z,7.28
2017-11-11T03:42:56.603Z,7.24
2017-11-11T03:43:22.727Z,7.23
2017-11-11T03:43:48.841Z,7.18
2017-11-11T03:44:14.961Z,7.14
2017-11-11T03:44:41.079Z,7.18
2017-11-11T03:45:07.197Z,7.17
2017-11-11T03:45:33.322Z,7.14
2017-11-11T03:45:59.442Z,7.21
2017-11-11T03:46:25.562Z,7.15
2017-11-11T03:46:51.678Z,7.15
2017-11-11T03:47:17.815Z,7.13
2017-11-11T03:47:43.942Z,7.2
2017-11-11T03:48:10.058Z,7.18
2017-11-11T03:48:36.181Z,7.2
2017-11-11T03:49:02.310Z,7.23
2017-11-11T03:49:28.430Z,7.06
2017-11-11T03:49:54.570Z,7.02
2017-11-11T03:50:20.707Z,6.99
2017-11-11T03:50:46.831Z,7.02
2017-11-11T03:51:12.953Z,7
2017-11-11T03:51:39.070Z,6.96
2017-11-11T03:52:05.197Z,7.03
2017-11-11T03:52:31.314Z,6.96
2017-11-11T03:52:57.431Z,7.03
2017-11-11T03:53:23.552Z,6.97
2017-11-11T03:53:49.677Z,6.99
2017-11-11T03:54:15.794Z,6.99
2017-11-11T03:54:41.919Z,6.95
2017-11-11T03:55:08.033Z,6.96
2017-11-11T03:55:34.152Z,6.97
2017-11-11T03:56:00.281Z,6.97
2017-11-11T03:56:26.416Z,6.99
2017-11-11T03:56:52.542Z,6.97
2017-11-11T03:57:18.661Z,6.93
2017-11-11T03:57:44.777Z,6.97
2017-11-11T03:58:10.902Z,6.92
2017-11-11T03:58:37.021Z,6.96
2017-11-11T03:59:03.136Z,6.87
2017-11-11T03:59:29.262Z,6.92
2017-11-11T03:59:55.382Z,6.96
2017-11-11T04:00:21.505Z,6.95
2017-11-11T04:00:47.623Z,6.99
2017-11-11T04:01:13.739Z,7
2017-11-11T04:01:39.885Z,7
2017-11-11T04:02:06.012Z,6.99
2017-11-11T04:02:32.130Z,6.96
2017-11-11T04:02:58.255Z,6.96
2017-11-11T04:03:24.364Z,6.99
2017-11-11T04:03:50.486Z,6.96
2017-11-11T04:04:16.604Z,6.95
2017-11-11T04:04:42.727Z,6.99
2017-11-11T04:05:08.845Z,6.99
2017-11-11T04:05:34.969Z,6.96
2017-11-11T04:06:01.089Z,6.95
2017-11-11T04:06:27.210Z,6.96
2017-11-11T04:06:53.333Z,6.92
2017-11-11T04:07:19.495Z,6.93
2017-11-11T04:07:45.614Z,6.92
2017-11-11T04:08:11.773Z,6.96
2017-11-11T04:08:37.885Z,6.96
2017-11-11T04:09:04.008Z,6.93
2017-11-11T04:09:30.126Z,6.96
2017-11-11T04:09:56.238Z,6.99
2017-11-11T04:10:22.375Z,6.99
2017-11-11T04:10:48.551Z,6.96
2017-11-11T04:11:14.640Z,6.99
2017-11-11T04:11:40.758Z,7
2017-11-11T04:12:06.882Z,7.02
2017-11-11T04:12:32.997Z,7.06
2017-11-11T04:12:59.154Z,7.02
2017-11-11T04:13:25.241Z,6.95
2017-11-11T04:13:51.365Z,7.02
2017-11-11T04:14:17.480Z,7.03
2017-11-11T04:14:43.609Z,7.03
2017-11-11T04:15:09.733Z,7.03
2017-11-11T04:15:35.854Z,7.14
2017-11-11T04:16:01.991Z,7.14
2017-11-11T04:16:28.107Z,7.18
2017-11-11T04:16:54.236Z,7.03
2017-11-11T04:17:20.356Z,7.2
2017-11-11T04:17:46.482Z,7.18
2017-11-11T04:18:12.618Z,7.06
2017-11-11T04:18:38.743Z,7.17
2017-11-11T04:19:04.864Z,7.2
2017-11-11T04:19:30.980Z,7.1
2017-11-11T04:19:57.099Z,7.14
2017-11-11T04:20:23.217Z,7.1
2017-11-11T04:20:49.344Z,7.05
2017-11-11T04:21:15.469Z,7.07
2017-11-11T04:21:41.592Z,7.14
2017-11-11T04:22:07.711Z,7.05
2017-11-11T04:22:33.828Z,7.03
2017-11-11T04:22:59.944Z,7.1
2017-11-11T04:23:26.059Z,7.14
2017-11-11T04:23:52.187Z,7.17
2017-11-11T04:24:18.325Z,7.17
2017-11-11T04:24:44.442Z,7.18
2017-11-11T04:25:10.561Z,7.07
2017-11-11T04:25:36.682Z,7.18
2017-11-11T04:26:02.808Z,7.15
2017-11-11T04:26:28.923Z,7.13
2017-11-11T04:26:55.047Z,7.15
2017-11-11T04:27:21.186Z,7.15
2017-11-11T04:27:47.313Z,7.2
2017-11-11T04:28:13.423Z,7.17
2017-11-11T04:28:39.546Z,7.11
2017-11-11T04:29:05.663Z,7.17
2017-11-11T04:29:31.789Z,7.06
2017-11-11T04:29:57.905Z,7.13
2017-11-11T04:30:24.033Z,7.2
2017-11-11T04:30:50.174Z,7.24
2017-11-11T04:31:16.325Z,7.24
2017-11-11T04:31:42.444Z,7.13
2017-11-11T04:32:08.597Z,7.18
2017-11-11T04:32:34.718Z,7.15
2017-11-11T04:33:00.867Z,7.17
2017-11-11T04:33:26.982Z,7.15
2017-11-11T04:33:53.127Z,7.14
2017-11-11T04:34:19.253Z,7.31
2017-11-11T04:34:45.370Z,7.21
2017-11-11T04:35:11.488Z,7.32
2017-11-11T04:35:37.616Z,7.25
2017-11-11T04:36:03.730Z,7.25
2017-11-11T04:36:29.869Z,7.36
2017-11-11T04:36:55.991Z,7.38
2017-11-11T04:37:22.106Z,7.39
2017-11-11T04:37:48.224Z,7.31
2017-11-11T04:38:14.351Z,7.45
2017-11-11T04:38:40.475Z,7.39
2017-11-11T04:39:06.591Z,7.53
2017-11-11T04:39:32.711Z,7.43
2017-11-11T04:39:58.824Z,7.4
2017-11-11T04:40:24.949Z,7.47
2017-11-11T04:40:51.064Z,7.39
2017-11-11T04:41:17.188Z,7.48
2017-11-11T04:41:43.314Z,7.43
2017-11-11T04:42:09.433Z,7.5
2017-11-11T04:42:35.548Z,7.54
2017-11-11T04:43:01.681Z,7.5
2017-11-11T04:43:27.823Z,7.5
2017-11-11T04:43:53.942Z,7.48
2017-11-11T04:44:20.064Z,7.5
2017-11-11T04:44:46.182Z,7.53
2017-11-11T04:45:12.308Z,7.58
2017-11-11T04:45:38.480Z,7.58
2017-11-11T04:46:04.589Z,7.58
2017-11-11T04:46:30.710Z,7.61
2017-11-11T04:46:56.830Z,7.54
2017-11-11T04:47:22.956Z,7.63
2017-11-11T04:47:49.097Z,7.58
2017-11-11T04:48:15.217Z,7.66
2017-11-11T04:48:41.339Z,7.69
2017-11-11T04:49:07.455Z,7.67
2017-11-11T04:49:33.579Z,7.67
2017-11-11T04:49:59.695Z,7.63
2017-11-11T04:50:25.818Z,7.53
2017-11-11T04:50:51.938Z,7.5
2017-11-11T04:51:18.059Z,7.5
2017-11-11T04:51:44.176Z,7.42
2017-11-11T04:52:10.295Z,7.48
2017-11-11T04:52:36.419Z,7.5
2017-11-11T04:53:02.541Z,7.53
2017-11-11T04:53:28.657Z,7.51
2017-11-11T04:53:54.802Z,7.53
2017-11-11T04:54:20.917Z,7.53
2017-11-11T04:54:47.043Z,7.51
2017-11-11T04:55:13.158Z,7.58
2017-11-11T04:55:39.279Z,7.43
2017-11-11T04:56:05.399Z,7.53
2017-11-11T04:56:31.519Z,7.5
2017-11-11T04:56:57.645Z,7.6
2017-11-11T04:57:23.769Z,7.54
2017-11-11T04:57:49.892Z,7.42
2017-11-11T04:58:16.014Z,7.4
2017-11-11T04:58:42.150Z,7.28
2017-11-11T04:59:08.269Z,7.28
2017-11-11T04:59:34.388Z,7.24
2017-11-11T05:00:00.503Z,7.31
2017-11-11T05:00:26.628Z,7.28
2017-11-11T05:00:52.752Z,7.29
2017-11-11T05:01:18.867Z,7.29
2017-11-11T05:01:44.989Z,7.38
2017-11-11T05:02:11.112Z,7.38
2017-11-11T05:02:37.236Z,7.39
2017-11-11T05:03:03.351Z,7.35
2017-11-11T05:03:29.476Z,7.36
2017-11-11T05:03:55.592Z,7.36
2017-11-11T05:04:21.713Z,7.35
2017-11-11T05:04:47.841Z,7.38
2017-11-11T05:05:13.976Z,7.28
2017-11-11T05:05:40.097Z,7.25
2017-11-11T05:06:06.217Z,7.28
2017-11-11T05:06:32.338Z,7.29
2017-11-11T05:06:58.461Z,7.32
2017-11-11T05:07:24.577Z,7.45
2017-11-11T05:07:50.719Z,7.43
2017-11-11T05:08:16.836Z,7.48
2017-11-11T05:08:42.961Z,7.43
2017-11-11T05:09:09.078Z,7.45
2017-11-11T05:09:35.198Z,7.42
2017-11-11T05:10:01.323Z,7.43
2017-11-11T05:10:27.444Z,7.51
2017-11-11T05:10:53.561Z,7.42
2017-11-11T05:11:19.679Z,7.45
2017-11-11T05:11:45.807Z,7.53
2017-11-11T05:12:11.924Z,7.42
2017-11-11T05:12:38.049Z,7.43
2017-11-11T05:13:04.174Z,7.45
2017-11-11T05:13:30.309Z,7.5
2017-11-11T05:13:56.439Z,7.39
2017-11-11T05:14:22.560Z,7.45
2017-11-11T05:14:48.671Z,7.36
2017-11-11T05:15:14.796Z,7.47
2017-11-11T05:15:40.911Z,7.45
2017-11-11T05:16:07.033Z,7.33
2017-11-11T05:16:33.162Z,7.4
2017-11-11T05:16:59.302Z,7.36
2017-11-11T05:17:25.418Z,7.45
2017-11-11T05:17:51.556Z,7.42
2017-11-11T05:18:17.699Z,7.43
2017-11-11T05:18:43.801Z,7.36
2017-11-11T05:19:09.924Z,7.36
2017-11-11T05:19:36.053Z,7.45
2017-11-11T05:20:02.166Z,7.42
2017-11-11T05:20:28.288Z,7.45
2017-11-11T05:20:54.401Z,7.47
2017-11-11T05:21:20.524Z,7.4
2017-11-11T05:21:46.645Z,7.51
2017-11-11T05:22:12.768Z,7.5
2017-11-11T05:22:38.901Z,7.43
2017-11-11T05:23:05.009Z,7.51
2017-11-11T05:23:31.125Z,7.51
2017-11-11T05:23:57.253Z,7.51
2017-11-11T05:24:23.375Z,7.53
2017-11-11T05:24:49.482Z,7.53
2017-11-11T05:25:15.606Z,7.47
2017-11-11T05:25:41.723Z,7.43
2017-11-11T05:26:07.841Z,7.47
2017-11-11T05:26:33.965Z,7.5
2017-11-11T05:27:00.087Z,7.43
2017-11-11T05:27:26.209Z,7.4
2017-11-11T05:27:52.332Z,7.38
2017-11-11T05:28:18.447Z,7.47
2017-11-11T05:28:44.573Z,7.43
2017-11-11T05:29:10.701Z,7.5
2017-11-11T05:29:36.819Z,7.4
2017-11-11T05:30:02.947Z,7.43
2017-11-11T05:30:29.090Z,7.35
2017-11-11T05:30:55.205Z,7.45
2017-11-11T05:31:21.315Z,7.33
2017-11-11T05:31:47.440Z,7.23
2017-11-11T05:32:13.555Z,7.31
2017-11-11T05:32:39.686Z,7.35
2017-11-11T05:33:05.805Z,7.29
2017-11-11T05:33:31.929Z,7.4
2017-11-11T05:33:58.049Z,7.47
2017-11-11T05:34:24.196Z,7.4
2017-11-11T05:34:50.318Z,7.42
2017-11-11T05:35:16.433Z,7.4
2017-11-11T05:35:42.550Z,7.5
2017-11-11T05:36:08.676Z,7.48
2017-11-11T05:36:34.791Z,7.43
2017-11-11T05:37:00.920Z,7.45
2017-11-11T05:37:27.041Z,7.47
2017-11-11T05:37:53.154Z,7.36
2017-11-11T05:38:19.277Z,7.33
2017-11-11T05:38:45.393Z,7.28
2017-11-11T05:39:11.512Z,7.39
2017-11-11T05:39:37.638Z,7.32
2017-11-11T05:40:03.762Z,7.25
2017-11-11T05:40:29.881Z,7.29
2017-11-11T05:40:56.002Z,7.35
2017-11-11T05:41:22.125Z,7.38
2017-11-11T05:41:48.243Z,7.39
2017-11-11T05:42:14.359Z,7.31
2017-11-11T05:42:40.485Z,7.43
2017-11-11T05:43:06.618Z,7.38
2017-11-11T05:43:32.725Z,7.31
2017-11-11T05:43:58.874Z,7.33
2017-11-11T05:44:24.989Z,7.33
2017-11-11T05:44:51.104Z,7.25
2017-11-11T05:45:17.226Z,7.4
2017-11-11T05:45:43.342Z,7.32
2017-11-11T05:46:09.462Z,7.32
2017-11-11T05:46:35.587Z,7.24
2017-11-11T05:47:01.715Z,7.32
2017-11-11T05:47:27.827Z,7.33
2017-11-11T05:47:53.946Z,7.39
2017-11-11T05:48:20.065Z,7.33
2017-11-11T05:48:46.187Z,7.4
2017-11-11T05:49:12.311Z,7.33
2017-11-11T05:49:38.437Z,7.32
2017-11-11T05:50:04.581Z,7.28